Time;durP1;ratioP1;P1;durP2;ratioP2;P2;SDS_P1;SDS_P2;PMS_P1;PMS_P2;Temp;Humidity;BMP_temperature;BMP_pressure;BME280_temperature;BME280_humidity;BME280_pressure;Samples;Min_cycle;Max_cycle;Signal;HPM_P1;HPM_P2
2021/08/17 00:00:34;;;;;;;7.30;2.95;;;13.40;99.90;;;;;;4943323;29;20027;-81
2021/08/17 00:03:00;;;;;;;5.47;2.67;;;13.40;99.90;;;;;;4960947;29;20078;-80
2021/08/17 00:05:26;;;;;;;4.95;2.30;;;13.40;99.90;;;;;;4981629;28;20065;-81
2021/08/17 00:07:51;;;;;;;6.15;2.50;;;13.40;99.90;;;;;;4972208;28;20038;-82
2021/08/17 00:10:17;;;;;;;6.18;2.67;;;13.40;99.90;;;;;;4980376;28;20058;-80
2021/08/17 00:12:43;;;;;;;6.18;2.70;;;13.30;99.90;;;;;;4981219;28;20562;-80
2021/08/17 00:15:09;;;;;;;6.65;2.58;;;13.20;99.90;;;;;;4980508;28;20050;-80
2021/08/17 00:17:35;;;;;;;6.50;2.65;;;13.20;99.90;;;;;;4970351;28;20034;-78
2021/08/17 00:20:01;;;;;;;9.23;3.30;;;13.20;99.90;;;;;;4981279;28;20027;-79
2021/08/17 00:22:26;;;;;;;6.82;2.88;;;13.10;99.90;;;;;;4980525;28;20031;-79
2021/08/17 00:24:54;;;;;;;7.32;3.20;;;13.00;99.90;;;;;;4963132;28;20499;-80
2021/08/17 00:27:20;;;;;;;9.45;3.47;;;13.10;99.90;;;;;;4944880;28;20047;-80
2021/08/17 00:29:47;;;;;;;7.03;3.10;;;13.10;99.90;;;;;;4959610;28;20027;-79
2021/08/17 00:32:13;;;;;;;7.28;3.65;;;13.10;99.90;;;;;;4958310;28;20033;-81
2021/08/17 00:34:39;;;;;;;8.18;3.25;;;12.90;99.90;;;;;;4959834;29;20031;-80
2021/08/17 00:37:04;;;;;;;12.02;3.65;;;13.00;99.90;;;;;;4960494;29;20538;-80
2021/08/17 00:39:31;;;;;;;10.02;3.40;;;13.10;99.90;;;;;;4959810;29;20110;-79
2021/08/17 00:42:03;;;;;;;8.18;3.97;;;13.00;99.90;;;;;;4960451;28;20023;-80
2021/08/17 00:44:29;;;;;;;7.07;3.00;;;13.10;99.90;;;;;;4979539;28;20035;-80
2021/08/17 00:46:58;;;;;;;8.38;3.53;;;13.10;99.90;;;;;;4982900;28;20035;-80
2021/08/17 00:49:24;;;;;;;6.85;3.60;;;13.20;99.90;;;;;;4988592;28;20393;-80
2021/08/17 00:51:54;;;;;;;8.13;4.07;;;13.30;99.90;;;;;;4960440;28;20019;-79
2021/08/17 00:54:20;;;;;;;7.60;3.67;;;13.30;99.90;;;;;;4961868;28;20038;-80
2021/08/17 00:56:46;;;;;;;8.65;3.90;;;13.40;99.90;;;;;;4984942;28;20031;-80
2021/08/17 00:59:12;;;;;;;7.05;3.28;;;13.30;99.90;;;;;;4945663;29;20090;-79
2021/08/17 01:01:38;;;;;;;8.15;4.03;;;13.40;99.90;;;;;;4998359;28;20052;-79
2021/08/17 01:04:04;;;;;;;8.65;4.03;;;13.30;99.90;;;;;;4959182;28;20020;-80
2021/08/17 01:06:31;;;;;;;7.63;3.78;;;13.20;99.90;;;;;;4960178;29;20030;-80
2021/08/17 01:08:56;;;;;;;8.63;4.10;;;13.20;99.90;;;;;;4969156;28;20055;-80
2021/08/17 01:11:22;;;;;;;8.77;3.53;;;13.20;99.90;;;;;;4970849;28;20459;-79
2021/08/17 01:13:50;;;;;;;7.00;3.40;;;13.00;99.90;;;;;;4978171;28;20023;-80
2021/08/17 01:16:17;;;;;;;7.32;3.80;;;13.00;99.90;;;;;;4978984;28;20106;-80
2021/08/17 01:18:43;;;;;;;7.10;3.13;;;13.00;99.90;;;;;;4971518;28;20046;-80
2021/08/17 01:21:09;;;;;;;7.65;3.20;;;12.90;99.90;;;;;;4966438;28;20035;-79
2021/08/17 01:23:35;;;;;;;7.53;3.47;;;13.00;99.90;;;;;;4952974;28;20081;-78
2021/08/17 01:26:01;;;;;;;7.32;3.40;;;12.90;99.90;;;;;;4960879;28;20057;-79
2021/08/17 01:28:26;;;;;;;7.53;3.22;;;13.00;99.90;;;;;;4969582;28;20039;-80
2021/08/17 01:31:06;;;;;;;7.85;3.83;;;12.90;99.90;;;;;;4959204;29;20034;-80
2021/08/17 01:33:32;;;;;;;7.60;3.50;;;13.00;99.90;;;;;;4959299;28;20027;-80
2021/08/17 01:35:58;;;;;;;7.32;3.20;;;13.00;99.90;;;;;;4953709;28;20066;-79
2021/08/17 01:38:24;;;;;;;8.07;3.47;;;12.90;99.90;;;;;;4975852;28;20472;-80
2021/08/17 01:40:50;;;;;;;7.15;3.42;;;12.80;99.90;;;;;;4978165;28;20118;-80
2021/08/17 01:43:17;;;;;;;7.95;3.33;;;12.80;99.90;;;;;;4960548;28;20097;-80
2021/08/17 01:45:44;;;;;;;7.90;3.35;;;12.80;99.90;;;;;;4965977;28;20711;-80
2021/08/17 01:48:11;;;;;;;8.38;3.33;;;12.60;99.90;;;;;;4974435;28;20030;-80
2021/08/17 01:50:37;;;;;;;6.30;3.03;;;12.60;99.90;;;;;;4972561;28;20061;-80
2021/08/17 01:53:04;;;;;;;7.93;2.92;;;12.50;99.90;;;;;;4970529;28;20035;-79
2021/08/17 01:55:30;;;;;;;7.55;3.10;;;12.30;99.90;;;;;;4957409;29;20400;-80
2021/08/17 01:57:56;;;;;;;6.60;3.10;;;12.40;99.90;;;;;;4958361;29;20035;-80
2021/08/17 02:00:21;;;;;;;7.63;3.13;;;12.40;99.90;;;;;;4959108;29;20028;-80
2021/08/17 02:02:47;;;;;;;6.70;3.08;;;12.50;99.90;;;;;;4959607;28;20023;-79
2021/08/17 02:05:13;;;;;;;9.02;2.83;;;12.40;99.90;;;;;;4961904;28;20023;-80
2021/08/17 02:07:38;;;;;;;6.47;3.20;;;12.40;99.90;;;;;;4963233;29;20035;-80
2021/08/17 02:10:05;;;;;;;7.07;2.78;;;12.30;99.90;;;;;;4963657;29;20031;-80
2021/08/17 02:12:31;;;;;;;8.07;3.05;;;12.20;99.90;;;;;;4960625;28;20054;-80
2021/08/17 02:14:56;;;;;;;6.40;2.72;;;12.30;99.90;;;;;;4962575;29;20035;-80
2021/08/17 02:17:22;;;;;;;7.00;2.83;;;12.20;99.90;;;;;;4951573;28;20022;-81
2021/08/17 02:19:48;;;;;;;9.63;3.35;;;12.10;99.90;;;;;;4977109;28;20050;-80
2021/08/17 02:22:14;;;;;;;8.30;2.90;;;12.20;99.90;;;;;;4944861;29;20121;-80
2021/08/17 02:24:40;;;;;;;7.25;3.58;;;12.00;99.90;;;;;;4962472;29;20034;-80
2021/08/17 02:27:06;;;;;;;11.02;3.22;;;12.10;99.90;;;;;;4960592;28;20027;-79
2021/08/17 02:29:32;;;;;;;8.68;3.25;;;12.00;99.90;;;;;;4961176;28;20119;-80
2021/08/17 02:31:57;;;;;;;10.98;3.50;;;12.10;99.90;;;;;;4959271;28;20027;-80
2021/08/17 02:34:23;;;;;;;7.90;2.85;;;12.20;99.90;;;;;;4960883;28;20134;-80
2021/08/17 02:36:48;;;;;;;8.88;3.22;;;12.30;99.90;;;;;;4969028;28;20023;-81
2021/08/17 02:39:14;;;;;;;11.70;3.00;;;12.30;99.90;;;;;;4960946;28;20039;-80
2021/08/17 02:41:40;;;;;;;9.23;3.10;;;12.40;99.90;;;;;;4944277;29;20023;-81
2021/08/17 02:44:05;;;;;;;6.45;2.90;;;12.40;99.90;;;;;;4961094;28;20085;-80
2021/08/17 02:46:31;;;;;;;9.63;2.85;;;12.50;99.90;;;;;;4961059;29;20023;-80
2021/08/17 02:48:56;;;;;;;7.15;3.42;;;12.50;99.90;;;;;;4961004;29;20027;-80
2021/08/17 02:51:22;;;;;;;8.40;2.90;;;12.50;99.90;;;;;;4977045;28;20459;-81
2021/08/17 02:53:47;;;;;;;7.15;3.08;;;12.60;99.90;;;;;;4976182;28;20035;-80
2021/08/17 02:56:13;;;;;;;8.30;3.05;;;12.50;99.90;;;;;;4980746;28;20085;-80
2021/08/17 02:58:39;;;;;;;7.93;3.13;;;12.50;99.90;;;;;;4980377;28;20113;-80
2021/08/17 03:01:04;;;;;;;8.95;3.00;;;12.50;99.90;;;;;;4981280;28;20121;-80
2021/08/17 03:03:30;;;;;;;6.95;2.88;;;12.50;99.90;;;;;;4965525;28;20032;-80
2021/08/17 03:05:56;;;;;;;8.70;3.60;;;12.50;99.90;;;;;;4961029;29;20376;-80
2021/08/17 03:08:21;;;;;;;7.38;2.88;;;12.40;99.90;;;;;;4958750;28;20058;-79
2021/08/17 03:10:47;;;;;;;8.25;3.40;;;12.40;99.90;;;;;;4967176;28;20070;-80
2021/08/17 03:13:13;;;;;;;8.15;3.17;;;12.40;99.90;;;;;;4943918;29;20034;-80
2021/08/17 03:15:39;;;;;;;8.43;3.25;;;12.50;99.90;;;;;;4960625;28;20353;-80
2021/08/17 03:18:07;;;;;;;7.53;3.05;;;12.50;99.90;;;;;;4952209;29;20040;-80
2021/08/17 03:20:35;;;;;;;6.45;3.03;;;12.50;99.90;;;;;;4959493;28;20464;-80
2021/08/17 03:23:01;;;;;;;6.68;2.78;;;12.40;99.90;;;;;;4961245;29;20035;-80
2021/08/17 03:25:27;;;;;;;6.82;3.00;;;12.40;99.90;;;;;;4943946;29;20031;-80
2021/08/17 03:27:53;;;;;;;7.10;2.97;;;12.40;99.90;;;;;;4959812;28;20037;-80
2021/08/17 03:30:21;;;;;;;7.95;3.50;;;12.50;99.90;;;;;;4940836;28;20103;-79
2021/08/17 03:32:47;;;;;;;8.55;3.25;;;12.40;99.90;;;;;;4958827;29;20053;-80
2021/08/17 03:35:13;;;;;;;6.72;2.95;;;12.40;99.90;;;;;;4960916;29;20115;-80
2021/08/17 03:37:40;;;;;;;7.93;2.90;;;12.30;99.90;;;;;;4961064;29;20042;-79
2021/08/17 03:40:17;;;;;;;8.20;3.28;;;12.30;99.90;;;;;;4960824;28;20035;-80
2021/08/17 03:42:43;;;;;;;8.55;2.97;;;12.20;99.90;;;;;;4943666;29;20389;-80
2021/08/17 03:45:11;;;;;;;5.97;2.90;;;12.30;99.90;;;;;;4942732;29;20503;-80
2021/08/17 03:47:37;;;;;;;5.38;2.67;;;12.30;99.90;;;;;;4942922;29;20050;-80
2021/08/17 03:50:09;;;;;;;7.38;2.90;;;12.30;99.90;;;;;;4958313;28;20035;-80
2021/08/17 03:52:34;;;;;;;9.38;3.05;;;12.30;99.90;;;;;;4994805;28;20081;-79
2021/08/17 03:55:00;;;;;;;9.50;4.15;;;12.20;99.90;;;;;;5024388;22;20034;-82
2021/08/17 03:57:26;;;;;;;5.80;2.88;;;12.20;99.90;;;;;;5019337;28;20096;-80
2021/08/17 03:59:51;;;;;;;6.70;3.20;;;12.10;99.90;;;;;;5021950;28;20053;-80
2021/08/17 04:02:17;;;;;;;7.35;3.15;;;12.10;99.90;;;;;;5038214;28;20133;-80
2021/08/17 04:04:43;;;;;;;9.52;3.08;;;12.10;99.90;;;;;;5023187;28;20037;-80
2021/08/17 04:07:08;;;;;;;9.13;2.90;;;12.00;99.90;;;;;;5017093;28;20372;-80
2021/08/17 04:09:34;;;;;;;10.88;2.88;;;12.10;99.90;;;;;;5001979;28;20212;-80
2021/08/17 04:11:59;;;;;;;9.38;3.17;;;12.10;99.90;;;;;;5002900;28;20093;-80
2021/08/17 04:14:25;;;;;;;8.25;3.50;;;12.10;99.90;;;;;;5019783;28;20033;-80
2021/08/17 04:16:51;;;;;;;7.78;3.92;;;12.10;99.90;;;;;;5032408;28;20028;-80
2021/08/17 04:19:16;;;;;;;7.85;3.22;;;12.00;99.90;;;;;;5021363;28;20083;-80
2021/08/17 04:21:42;;;;;;;7.47;3.30;;;12.00;99.90;;;;;;5005690;28;20113;-80
2021/08/17 04:24:07;;;;;;;8.25;3.15;;;12.00;99.90;;;;;;5001759;28;20026;-80
2021/08/17 04:26:33;;;;;;;8.85;2.75;;;12.00;99.90;;;;;;5000948;28;20023;-80
2021/08/17 04:28:58;;;;;;;7.85;3.30;;;11.90;99.90;;;;;;5002247;28;20033;-80
2021/08/17 04:31:24;;;;;;;7.35;2.92;;;11.90;99.90;;;;;;5000523;28;20041;-80
2021/08/17 04:33:50;;;;;;;8.88;3.20;;;12.00;99.90;;;;;;5001794;28;20114;-80
2021/08/17 04:36:15;;;;;;;7.05;3.22;;;12.00;99.90;;;;;;5002557;28;20030;-80
2021/08/17 04:38:41;;;;;;;5.75;2.50;;;12.00;99.90;;;;;;5001838;28;20030;-81
2021/08/17 04:41:07;;;;;;;6.65;2.88;;;12.00;99.90;;;;;;5001515;28;20038;-80
2021/08/17 04:43:32;;;;;;;8.18;3.03;;;12.00;99.90;;;;;;5000622;28;20030;-81
2021/08/17 04:45:58;;;;;;;5.90;2.67;;;12.00;99.90;;;;;;5002219;28;20030;-81
2021/08/17 04:48:23;;;;;;;7.40;3.50;;;12.00;99.90;;;;;;5001344;28;20049;-80
2021/08/17 04:50:49;;;;;;;8.65;3.33;;;12.00;99.90;;;;;;5005014;28;20316;-80
2021/08/17 04:53:15;;;;;;;6.55;3.13;;;11.80;99.90;;;;;;5020781;28;20116;-81
2021/08/17 04:55:41;;;;;;;9.02;3.15;;;11.90;99.90;;;;;;5018798;28;20037;-81
2021/08/17 04:58:06;;;;;;;7.00;3.00;;;11.80;99.90;;;;;;5001254;28;20037;-81
2021/08/17 05:00:32;;;;;;;7.47;3.05;;;11.90;99.90;;;;;;5001949;28;20398;-80
2021/08/17 05:02:58;;;;;;;7.30;3.13;;;11.90;99.90;;;;;;5001676;28;20026;-80
2021/08/17 05:05:25;;;;;;;8.88;3.50;;;11.90;99.90;;;;;;5000926;28;20066;-80
2021/08/17 05:07:51;;;;;;;7.63;2.85;;;11.90;99.90;;;;;;4999877;28;20054;-80
2021/08/17 05:10:22;;;;;;;8.90;2.95;;;11.90;99.90;;;;;;5000582;28;20030;-80
2021/08/17 05:12:48;;;;;;;6.95;3.47;;;12.00;99.90;;;;;;5000906;28;20025;-80
2021/08/17 05:15:14;;;;;;;8.50;2.90;;;12.00;99.90;;;;;;4999247;28;20090;-80
2021/08/17 05:17:40;;;;;;;6.90;3.03;;;12.10;99.90;;;;;;5009702;28;20034;-80
2021/08/17 05:20:08;;;;;;;8.23;3.40;;;12.10;99.90;;;;;;5019416;28;20022;-79
2021/08/17 05:22:35;;;;;;;6.80;3.47;;;12.00;99.90;;;;;;5020416;28;20026;-80
2021/08/17 05:25:00;;;;;;;7.43;3.10;;;12.10;99.90;;;;;;5008018;28;20069;-80
2021/08/17 05:27:26;;;;;;;9.50;3.67;;;12.20;99.90;;;;;;4999520;28;20030;-80
2021/08/17 05:29:53;;;;;;;7.35;3.40;;;12.30;99.90;;;;;;5022875;28;20541;-80
2021/08/17 05:32:20;;;;;;;7.03;2.88;;;12.40;99.90;;;;;;5027905;28;20382;-79
2021/08/17 05:34:46;;;;;;;8.02;3.30;;;12.50;99.90;;;;;;5011987;28;20037;-80
2021/08/17 05:37:14;;;;;;;8.95;3.15;;;12.50;99.90;;;;;;4999812;28;20030;-80
2021/08/17 05:39:40;;;;;;;8.32;3.10;;;12.60;99.90;;;;;;4997779;28;20025;-80
2021/08/17 05:42:06;;;;;;;7.88;3.13;;;12.60;99.90;;;;;;5000456;28;20034;-80
2021/08/17 05:44:32;;;;;;;9.23;3.28;;;12.70;99.90;;;;;;4998779;28;20048;-79
2021/08/17 05:46:57;;;;;;;7.60;3.72;;;12.80;99.90;;;;;;5023543;28;20030;-80
2021/08/17 05:49:23;;;;;;;7.38;3.53;;;12.90;99.90;;;;;;5035512;28;20033;-80
2021/08/17 05:51:48;;;;;;;8.32;3.47;;;13.00;99.90;;;;;;5017365;28;20049;-80
2021/08/17 05:54:14;;;;;;;8.07;3.20;;;13.00;99.90;;;;;;5019390;28;20045;-80
2021/08/17 05:56:39;;;;;;;8.38;3.60;;;13.00;99.90;;;;;;5018597;28;20038;-81
2021/08/17 05:59:05;;;;;;;8.13;3.50;;;13.00;99.90;;;;;;5021751;28;20034;-80
2021/08/17 06:01:31;;;;;;;7.40;3.50;;;13.10;99.90;;;;;;5009729;28;21172;-80
2021/08/17 06:03:57;;;;;;;8.07;3.13;;;13.20;99.90;;;;;;5017060;28;20018;-81
2021/08/17 06:06:22;;;;;;;7.47;3.00;;;13.30;99.90;;;;;;5022375;28;20036;-81
2021/08/17 06:08:48;;;;;;;8.27;3.50;;;13.30;99.90;;;;;;5022125;28;20026;-81
2021/08/17 06:11:14;;;;;;;7.78;3.38;;;13.30;99.90;;;;;;5010762;28;20022;-81
2021/08/17 06:13:39;;;;;;;7.80;3.55;;;13.40;99.90;;;;;;5021188;28;20318;-81
2021/08/17 06:16:05;;;;;;;7.72;2.80;;;13.20;99.90;;;;;;5017318;28;20398;-81
2021/08/17 06:18:31;;;;;;;7.15;3.60;;;13.40;99.90;;;;;;5015694;28;20084;-81
2021/08/17 06:20:57;;;;;;;8.68;2.92;;;13.50;99.90;;;;;;5020106;28;20029;-81
2021/08/17 06:23:23;;;;;;;9.02;3.53;;;13.60;99.90;;;;;;5020224;28;20044;-81
2021/08/17 06:25:48;;;;;;;7.97;2.92;;;13.70;99.90;;;;;;5016875;28;20048;-81
2021/08/17 06:28:14;;;;;;;9.63;3.28;;;13.70;99.90;;;;;;5018249;28;20033;-81
2021/08/17 06:30:40;;;;;;;8.80;2.85;;;13.70;99.90;;;;;;5019474;28;20017;-81
2021/08/17 06:33:06;;;;;;;11.02;3.70;;;13.60;99.90;;;;;;5019787;28;20029;-80
2021/08/17 06:35:32;;;;;;;8.30;3.88;;;13.60;99.90;;;;;;5018751;28;20612;-82
2021/08/17 06:37:59;;;;;;;6.55;3.30;;;13.70;99.90;;;;;;5021256;28;20029;-81
2021/08/17 06:40:26;;;;;;;8.02;3.30;;;13.90;99.90;;;;;;5020699;28;20025;-81
2021/08/17 06:42:52;;;;;;;8.88;3.38;;;14.00;99.90;;;;;;5013463;28;20028;-81
2021/08/17 06:45:18;;;;;;;8.43;3.40;;;13.90;99.90;;;;;;5024074;28;20383;-81
2021/08/17 06:47:53;;;;;;;7.65;3.38;;;13.80;99.90;;;;;;5025761;28;20036;-80
2021/08/17 06:50:19;;;;;;;7.78;3.20;;;13.80;99.90;;;;;;5017989;28;20030;-80
2021/08/17 06:52:45;;;;;;;8.23;3.33;;;13.80;99.90;;;;;;5018467;28;20098;-81
2021/08/17 06:55:12;;;;;;;9.07;3.25;;;13.60;99.90;;;;;;5038645;28;20631;-83
2021/08/17 06:57:38;;;;;;;9.57;3.40;;;13.60;99.90;;;;;;5031660;28;20061;-83
2021/08/17 07:00:10;;;;;;;10.02;4.20;;;13.70;99.90;;;;;;5029222;28;20026;-83
2021/08/17 07:02:35;;;;;;;6.72;3.22;;;13.80;99.90;;;;;;5018582;28;20030;-82
2021/08/17 07:05:02;;;;;;;8.23;3.47;;;13.90;99.90;;;;;;5014986;28;20048;-84
2021/08/17 07:07:28;;;;;;;6.97;2.92;;;14.00;99.90;;;;;;5028850;28;20030;-83
2021/08/17 07:09:53;;;;;;;8.48;3.63;;;14.20;99.90;;;;;;5027058;28;20034;-84
2021/08/17 07:12:19;;;;;;;8.02;3.60;;;14.50;99.90;;;;;;5024929;28;20030;-84
2021/08/17 07:14:45;;;;;;;8.02;3.70;;;14.40;99.90;;;;;;5025127;28;20084;-84
2021/08/17 07:17:10;;;;;;;9.57;3.70;;;14.50;99.90;;;;;;5016275;28;20230;-83
2021/08/17 07:19:36;;;;;;;7.60;3.67;;;14.60;99.90;;;;;;5025203;28;20036;-84
2021/08/17 07:22:03;;;;;;;9.43;3.60;;;14.40;99.90;;;;;;5026613;28;20041;-84
2021/08/17 07:24:29;;;;;;;7.68;3.50;;;14.50;99.90;;;;;;5026021;28;20030;-84
2021/08/17 07:26:55;;;;;;;7.88;3.67;;;14.50;99.90;;;;;;5018519;28;20113;-83
2021/08/17 07:29:22;;;;;;;8.30;4.07;;;14.50;99.90;;;;;;5015124;28;20372;-84
2021/08/17 07:31:48;;;;;;;10.95;4.15;;;14.60;99.90;;;;;;5027092;28;20037;-85
2021/08/17 07:34:14;;;;;;;8.48;3.83;;;14.70;99.90;;;;;;5032893;28;20105;-86
2021/08/17 07:36:40;;;;;;;8.95;4.18;;;14.70;99.90;;;;;;5027730;28;20026;-86
2021/08/17 07:39:07;;;;;;;7.43;3.85;;;14.90;99.90;;;;;;5020554;28;20035;-86
2021/08/17 07:41:34;;;;;;;10.32;4.55;;;15.10;99.90;;;;;;5029124;28;20030;-86
2021/08/17 07:44:01;;;;;;;9.55;4.00;;;15.50;99.90;;;;;;5026189;28;20026;-85
2021/08/17 07:46:27;;;;;;;10.23;4.30;;;15.50;99.90;;;;;;5020126;28;20025;-84
2021/08/17 07:48:53;;;;;;;7.55;3.97;;;15.50;99.90;;;;;;5010014;28;20099;-82
2021/08/17 07:51:18;;;;;;;8.75;4.20;;;15.40;99.90;;;;;;5005511;28;20094;-82
2021/08/17 07:53:44;;;;;;;9.50;4.32;;;15.20;99.90;;;;;;5015562;28;20117;-83
2021/08/17 07:56:10;;;;;;;8.55;3.75;;;15.10;99.90;;;;;;5032516;28;20113;-86
2021/08/17 07:58:36;;;;;;;8.25;3.47;;;15.10;99.90;;;;;;5011786;28;20163;-85
2021/08/17 08:01:02;;;;;;;8.73;3.58;;;15.40;99.90;;;;;;5027166;28;20500;-86
2021/08/17 08:03:28;;;;;;;10.85;3.83;;;15.60;99.90;;;;;;5025317;28;20390;-86
2021/08/17 08:05:54;;;;;;;8.80;4.10;;;15.80;99.90;;;;;;5009003;28;20036;-83
2021/08/17 08:08:19;;;;;;;9.40;4.28;;;15.60;99.90;;;;;;5012105;28;20030;-83
2021/08/17 08:10:45;;;;;;;8.25;3.83;;;15.50;99.90;;;;;;5023062;28;20029;-84
2021/08/17 08:13:11;;;;;;;9.75;3.67;;;15.80;99.90;;;;;;5012126;28;20077;-85
2021/08/17 08:15:40;;;;;;;7.50;3.78;;;16.20;99.90;;;;;;5004297;28;20095;-85
2021/08/17 08:18:06;;;;;;;8.15;3.38;;;16.10;99.90;;;;;;5002598;28;20030;-84
2021/08/17 08:20:32;;;;;;;8.85;3.42;;;16.20;99.90;;;;;;5010136;28;20037;-83
2021/08/17 08:22:59;;;;;;;8.68;3.65;;;16.40;99.90;;;;;;5010679;28;20070;-85
2021/08/17 08:25:25;;;;;;;6.72;3.05;;;16.60;99.90;;;;;;5014040;28;20453;-84
2021/08/17 08:27:55;;;;;;;6.50;3.05;;;16.80;99.90;;;;;;5014525;28;20033;-84
2021/08/17 08:30:21;;;;;;;8.55;3.40;;;17.00;99.90;;;;;;5011948;28;20642;-84
2021/08/17 08:32:48;;;;;;;7.63;3.67;;;17.20;99.90;;;;;;5008007;28;20034;-84
2021/08/17 08:35:14;;;;;;;8.30;3.67;;;17.30;99.90;;;;;;5007796;28;20030;-84
2021/08/17 08:37:41;;;;;;;7.35;3.47;;;17.60;99.90;;;;;;4999293;28;20052;-85
2021/08/17 08:40:11;;;;;;;8.23;4.05;;;17.20;99.90;;;;;;5005662;28;20045;-85
2021/08/17 08:42:37;;;;;;;8.35;3.60;;;17.00;99.90;;;;;;4998635;28;20038;-85
2021/08/17 08:45:04;;;;;;;7.60;3.38;;;17.00;99.90;;;;;;5012753;28;20039;-85
2021/08/17 08:47:33;;;;;;;9.85;3.40;;;17.00;99.90;;;;;;4999206;28;20033;-84
2021/08/17 08:50:01;;;;;;;7.63;4.00;;;17.10;99.90;;;;;;4999904;28;20037;-85
2021/08/17 08:52:27;;;;;;;8.18;3.70;;;17.10;99.90;;;;;;5002089;28;20049;-85
2021/08/17 08:54:52;;;;;;;7.40;3.38;;;17.10;99.90;;;;;;5005181;28;20032;-86
2021/08/17 08:57:18;;;;;;;7.20;3.60;;;16.90;99.90;;;;;;5019958;28;20125;-87
2021/08/17 08:59:44;;;;;;;8.77;3.83;;;16.80;99.90;;;;;;5004256;28;20104;-86
2021/08/17 09:02:17;;;;;;;9.23;3.83;;;16.90;99.90;;;;;;4991412;28;20045;-85
2021/08/17 09:04:51;;;;;;;6.95;3.35;;;16.90;99.90;;;;;;5005513;28;20485;-86
2021/08/17 09:07:39;;;;;;;8.20;4.45;;;16.80;99.90;;;;;;5006882;28;20524;-86
2021/08/17 09:10:08;;;;;;;7.57;3.55;;;17.10;99.90;;;;;;5008364;28;20094;-85
2021/08/17 09:12:39;;;;;;;8.63;3.60;;;17.20;99.90;;;;;;4995015;28;20452;-84
2021/08/17 09:15:10;;;;;;;6.75;3.58;;;17.40;99.90;;;;;;5011808;28;20030;-87
2021/08/17 09:17:36;;;;;;;8.50;3.80;;;17.50;99.90;;;;;;5010753;28;20071;-86
2021/08/17 09:20:03;;;;;;;7.20;3.90;;;17.90;99.90;;;;;;5002350;28;20022;-85
2021/08/17 09:22:31;;;;;;;9.20;3.90;;;18.00;99.90;;;;;;5008215;28;20026;-86
2021/08/17 09:24:59;;;;;;;8.32;4.22;;;18.30;99.90;;;;;;5014906;28;20026;-86
2021/08/17 09:27:31;;;;;;;7.68;3.50;;;18.20;99.90;;;;;;5021294;28;20040;-86
2021/08/17 09:30:13;;;;;;;8.45;3.65;;;18.10;99.90;;;;;;5013899;28;20022;-86
2021/08/17 09:32:51;;;;;;;6.68;3.30;;;18.20;99.90;;;;;;5008335;28;20216;-84
2021/08/17 09:35:19;;;;;;;9.13;4.20;;;18.40;99.50;;;;;;5006296;28;20118;-83
2021/08/17 09:37:45;;;;;;;7.38;4.10;;;18.30;99.90;;;;;;5000400;28;20828;-84
2021/08/17 09:40:13;;;;;;;12.13;3.80;;;18.30;99.80;;;;;;5020491;28;20113;-84
2021/08/17 09:42:38;;;;;;;5.88;3.17;;;18.30;99.50;;;;;;4996728;28;20486;-83
2021/08/17 09:45:07;;;;;;;9.02;3.67;;;18.20;99.60;;;;;;4999385;28;20021;-84
2021/08/17 09:47:39;;;;;;;9.77;3.75;;;18.00;99.90;;;;;;5002319;28;20076;-83
2021/08/17 09:50:37;;;;;;;7.13;3.38;;;18.10;99.60;;;;;;5013347;28;20033;-83
2021/08/17 09:53:17;;;;;;;7.85;3.47;;;17.90;98.90;;;;;;4991247;28;20132;-84
2021/08/17 09:55:49;;;;;;;6.70;3.05;;;17.90;98.90;;;;;;5007329;28;20092;-83
2021/08/17 09:58:27;;;;;;;6.50;3.33;;;17.80;97.90;;;;;;4989426;28;20038;-84
2021/08/17 10:00:59;;;;;;;6.15;3.13;;;17.90;97.10;;;;;;4989347;28;20044;-83
2021/08/17 10:03:26;;;;;;;6.57;3.20;;;17.80;97.70;;;;;;4989883;28;20085;-84
2021/08/17 10:05:52;;;;;;;5.72;2.90;;;18.00;98.60;;;;;;4990847;28;20030;-84
2021/08/17 10:08:20;;;;;;;5.63;2.78;;;18.20;98.00;;;;;;4991507;28;20406;-84
2021/08/17 10:10:48;;;;;;;5.72;2.65;;;18.00;97.60;;;;;;5007043;28;20042;-84
2021/08/17 10:13:22;;;;;;;8.18;3.22;;;18.10;97.10;;;;;;5016920;28;20041;-86
2021/08/17 10:15:50;;;;;;;5.03;2.60;;;18.10;97.50;;;;;;5005769;28;20073;-85
2021/08/17 10:18:22;;;;;;;8.07;2.88;;;18.00;96.60;;;;;;5003461;28;20022;-85
2021/08/17 10:20:52;;;;;;;6.55;2.70;;;18.00;96.00;;;;;;5005826;28;20018;-87
2021/08/17 10:23:20;;;;;;;6.47;2.67;;;17.80;95.90;;;;;;5008288;28;20053;-88
2021/08/17 10:25:54;;;;;;;5.57;2.20;;;17.60;95.10;;;;;;5010798;28;20017;-87
2021/08/17 10:28:32;;;;;;;9.43;2.58;;;17.50;96.40;;;;;;5010772;28;20542;-87
2021/08/17 10:31:11;;;;;;;5.97;2.60;;;17.50;95.80;;;;;;5026021;28;20126;-86
2021/08/17 10:34:07;;;;;;;6.57;2.40;;;17.50;96.20;;;;;;5013669;28;20033;-87
2021/08/17 10:36:44;;;;;;;6.57;2.58;;;17.60;96.40;;;;;;5008622;28;20521;-88
2021/08/17 10:39:18;;;;;;;7.68;2.55;;;17.90;95.60;;;;;;5016839;28;20026;-89
2021/08/17 10:41:52;;;;;;;8.02;2.70;;;18.40;96.30;;;;;;5027609;28;20021;-88
2021/08/17 10:44:29;;;;;;;5.40;2.08;;;18.50;95.60;;;;;;5017259;28;20056;-88
2021/08/17 10:47:01;;;;;;;5.00;2.30;;;18.60;95.40;;;;;;5010920;28;20136;-88
2021/08/17 10:49:47;;;;;;;6.38;2.65;;;18.80;94.20;;;;;;5018011;28;20485;-88
2021/08/17 10:52:27;;;;;;;7.28;3.00;;;18.90;93.90;;;;;;5013761;28;20030;-88
2021/08/17 10:55:22;;;;;;;5.30;2.47;;;18.90;93.90;;;;;;5018244;28;20021;-88
2021/08/17 10:58:00;;;;;;;6.38;2.38;;;19.10;94.50;;;;;;5035210;28;20509;-88
2021/08/17 11:00:48;;;;;;;5.28;2.30;;;19.40;94.70;;;;;;5034706;28;20029;-88
2021/08/17 11:03:34;;;;;;;5.72;2.20;;;19.50;91.90;;;;;;5028215;28;20021;-89
2021/08/17 11:06:01;;;;;;;4.43;1.77;;;19.80;91.60;;;;;;5020031;28;20068;-89
2021/08/17 11:08:39;;;;;;;4.28;2.00;;;19.90;91.30;;;;;;5020374;28;20034;-88
2021/08/17 11:11:18;;;;;;;4.97;2.33;;;20.10;91.00;;;;;;5014902;28;20107;-88
2021/08/17 11:14:00;;;;;;;3.58;1.73;;;20.00;88.80;;;;;;5015625;28;20028;-88
2021/08/17 11:16:27;;;;;;;5.60;2.65;;;20.00;87.60;;;;;;5011285;28;20046;-88
2021/08/17 11:18:58;;;;;;;9.35;2.65;;;20.10;89.80;;;;;;5010788;28;20242;-85
2021/08/17 11:21:43;;;;;;;6.47;2.30;;;19.90;87.90;;;;;;5002570;28;20401;-87
2021/08/17 11:24:23;;;;;;;4.38;1.80;;;19.80;91.60;;;;;;5012020;28;20443;-85
2021/08/17 11:26:58;;;;;;;4.53;1.80;;;19.90;87.40;;;;;;5025681;28;20018;-86
2021/08/17 11:29:43;;;;;;;4.45;1.90;;;20.00;86.20;;;;;;5010871;28;20022;-85
2021/08/17 11:32:24;;;;;;;5.97;1.98;;;19.50;86.40;;;;;;5013258;28;20651;-86
2021/08/17 11:34:49;;;;;;;4.80;1.77;;;19.90;86.80;;;;;;5023365;28;20085;-86
2021/08/17 11:37:16;;;;;;;5.03;2.03;;;19.80;87.20;;;;;;5012361;28;20472;-87
2021/08/17 11:39:54;;;;;;;4.00;1.70;;;20.30;85.90;;;;;;5013534;28;20381;-86
2021/08/17 11:42:28;;;;;;;5.80;2.00;;;20.50;87.00;;;;;;5013687;28;20664;-86
2021/08/17 11:44:58;;;;;;;4.22;1.77;;;20.30;85.10;;;;;;5006769;28;20026;-86
2021/08/17 11:47:24;;;;;;;4.72;2.10;;;20.70;82.40;;;;;;5009611;28;20030;-86
2021/08/17 11:49:52;;;;;;;4.10;1.77;;;21.00;81.30;;;;;;5011340;28;20092;-86
2021/08/17 11:52:19;;;;;;;4.75;1.63;;;21.30;80.50;;;;;;5009027;28;20752;-86
2021/08/17 11:54:49;;;;;;;3.50;1.48;;;21.80;80.50;;;;;;5006094;28;20030;-87
2021/08/17 11:57:28;;;;;;;4.40;1.70;;;22.00;77.50;;;;;;5009434;28;20045;-85
2021/08/17 11:59:54;;;;;;;4.28;1.65;;;22.40;77.40;;;;;;5015741;28;20017;-86
2021/08/17 12:02:26;;;;;;;4.38;1.98;;;22.20;76.30;;;;;;5009557;28;20030;-86
2021/08/17 12:04:53;;;;;;;;;;;22.80;77.40;;;;;;5009044;28;20035;-86
2021/08/17 12:07:19;;;;;;;6.05;2.30;;;22.90;73.80;;;;;;5011897;28;19940;-85
2021/08/17 12:09:47;;;;;;;5.28;2.05;;;23.20;72.40;;;;;;5010289;28;20033;-86
2021/08/17 12:12:16;;;;;;;4.82;2.30;;;23.30;71.90;;;;;;5007916;28;20022;-86
2021/08/17 12:14:42;;;;;;;6.10;2.10;;;23.60;70.90;;;;;;5011662;28;20088;-86
2021/08/17 12:17:09;;;;;;;4.80;1.90;;;23.50;72.00;;;;;;5008025;28;20026;-86
2021/08/17 12:19:42;;;;;;;3.95;2.08;;;23.20;75.80;;;;;;5018337;28;20057;-85
2021/08/17 12:22:23;;;;;;;4.13;2.30;;;23.20;74.50;;;;;;5008776;28;20032;-86
2021/08/17 12:24:51;;;;;;;5.68;2.90;;;23.10;75.20;;;;;;5012101;28;20026;-86
2021/08/17 12:27:27;;;;;;;5.30;2.75;;;22.10;76.80;;;;;;5021672;28;20121;-85
2021/08/17 12:29:55;;;;;;;5.22;2.30;;;22.20;76.40;;;;;;5007631;28;20057;-85
2021/08/17 12:32:28;;;;;;;5.32;2.20;;;22.30;76.30;;;;;;4989920;28;20030;-86
2021/08/17 12:35:02;;;;;;;5.57;2.58;;;22.50;76.60;;;;;;4991171;28;20027;-86
2021/08/17 12:37:32;;;;;;;5.18;2.80;;;22.70;75.50;;;;;;4991427;28;20022;-86
2021/08/17 12:40:00;;;;;;;5.55;2.88;;;22.90;75.00;;;;;;5009069;28;20441;-86
2021/08/17 12:42:26;;;;;;;5.88;2.70;;;23.20;75.80;;;;;;5019408;28;20030;-86
2021/08/17 12:44:54;;;;;;;5.38;2.90;;;23.20;73.10;;;;;;5011696;28;20030;-86
2021/08/17 12:47:27;;;;;;;6.75;2.90;;;23.20;74.50;;;;;;5012548;28;20060;-85
2021/08/17 12:50:00;;;;;;;8.48;3.13;;;23.10;75.20;;;;;;4994283;28;20034;-86